Narrows Sub (686, 687, 800) Station Data

Red Flag Warning: No
Fire Weather Zone: 262
SDGE Region: Ramona
Lat/Lon: 33.137/-116.294

Observations

Time Wind Speed/Gust Temp(F) RH Fuel Moist Fuel Temp(F) Dewpt(F) Tmax(F) Tmin(F) Accum Precip 10-min Precip SL Press(mb)
6/22 4:50am 269 7 G 13 92° 10% - - 27° 95.6° 90.6° 0.0" 0.0" 1006.0
6/22 4:40am 265 4 G 11 92° 10% - - 28° 95.6° 90.6° 0.0" 0.0" 1006.0
6/22 4:30am 271 7 G 13 92° 10% - - 28° 95.6° 90.6° 0.0" 0.0" 1006.0
6/22 4:20am 261 6 G 12 92° 10% - - 28° 95.6° 90.6° 0.0" 0.0" 1005.0
6/22 4:10am 207 5 G 10 92° 10% - - 27° 95.6° 90.8° 0.0" 0.0" 1005.0
6/22 4:00am 199 6 G 9 91° 10% - - 28° 95.6° 90.8° 0.0" 0.0" 1005.0
6/22 3:50am 200 5 G 9 92° 11% - - 29° 95.6° 91.5° 0.0" 0.0" 1005.0
6/22 3:40am 194 4 G 7 93° 10% - - 29° 95.6° 91.7° 0.0" 0.0" 1005.0
6/22 3:30am 196 5 G 9 92° 11% - - 29° 95.6° 91.7° 0.0" 0.0" 1005.0
6/22 3:20am 201 5 G 11 92° 11% - - 30° 95.6° 91.7° 0.0" 0.0" 1005.0
6/22 3:10am 230 5 G 11 93° 10% - - 29° 95.6° 91.8° 0.0" 0.0" 1005.0
6/22 3:00am 202 4 G 8 93° 10% - - 28° 95.6° 92° 0.0" 0.0" 1005.0
6/22 2:50am 237 3 G 10 93° 10% - - 29° 95.6° 92.2° 0.0" 0.0" 1005.0
6/22 2:40am 225 3 G 9 93° 10% - - 29° 95.6° 92.2° 0.0" 0.0" 1005.0
6/22 2:30am 270 5 G 10 95° 9% - - 28° 95.6° 92.3° 0.0" 0.0" 1006.0
6/22 2:20am 257 4 G 8 94° 9% - - 27° 95.5° 92.3° 0.0" 0.0" 1006.0
6/22 2:10am 241 4 G 11 95° 9% - - 28° 95.5° 92.3° 0.0" 0.0" 1006.0
6/22 2:00am 236 2 G 5 94° 10% - - 29° 95.2° 92.3° 0.0" 0.0" 1006.0
6/22 1:50am 245 4 G 10 94° 11% - - 31° 95.2° 92.3° 0.0" 0.0" 1006.0
6/22 1:40am 268 5 G 12 94° 11% - - 31° 95.2° 92.3° 0.0" 0.0" 1006.0
6/22 1:30am 218 3 G 7 93° 12% - - 33° 95.2° 92.3° 0.0" 0.0" 1006.0
6/22 1:20am 224 3 G 9 93° 14% - - 36° 95.2° 92.3° 0.0" 0.0" 1006.0
6/22 1:10am 240 3 G 9 94° 14% - - 36° 95.2° 93.1° 0.0" 0.0" 1006.0
6/22 1:00am 238 5 G 11 94° 13% - - 36° 95.2° 93.5° 0.0" 0.0" 1006.0
6/22 12:50am 231 5 G 11 94° 13% - - 36° 95.2° 93.5° 0.0" 0.0" 1006.0
6/22 12:40am 243 6 G 15 94° 13% - - 36° 95.2° 93.8° 0.0" 0.0" 1006.0
6/22 12:30am 243 5 G 15 94° 14% - - 37° 95.2° 93.8° 0.0" 0.0" 1006.0
6/22 12:20am 262 7 G 16 95° 14% - - 38° 95.2° 93.9° 0.0" 0.0" 1006.0
6/22 12:10am 261 8 G 16 95° 15% - - 39° 95.2° 94° 0.0" 0.0" 1006.0
6/22 12:00am 244 6 G 14 94° 15% - - 40° 113.5° 94° 0.0" 0.0" 1006.0
6/21 11:50pm 236 6 G 14 95° 16% - - 41° 113.5° 94.3° 0.0" 0.0" 1006.0
6/21 11:40pm 220 6 G 13 95° 16% - - 42° 113.5° 94.6° 0.0" 0.0" 1006.0
6/21 11:30pm 230 8 G 16 96° 16% - - 42° 113.5° 94.6° 0.0" 0.0" 1006.0
6/21 11:20pm 233 8 G 18 96° 16% - - 43° 113.5° 94.6° 0.0" 0.0" 1006.0
6/21 11:10pm 227 7 G 13 96° 16% - - 42° 113.5° 94.6° 0.0" 0.0" 1006.0
6/21 11:00pm 224 7 G 14 96° 16% - - 42° 113.5° 94.6° 0.0" 0.0" 1006.0
6/21 10:50pm 229 5 G 11 97° 15% - - 41° 113.5° 94.6° 0.0" 0.0" 1006.0
6/21 10:40pm 235 7 G 14 97° 14% - - 40° 113.5° 94.6° 0.0" 0.0" 1006.0
6/21 10:30pm 220 6 G 14 97° 14% - - 40° 113.5° 94.6° 0.0" 0.0" 1006.0
6/21 10:20pm 228 7 G 15 98° 14% - - 39° 113.5° 94.6° 0.0" 0.0" 1006.0
6/21 10:10pm 225 7 G 13 97° 14% - - 40° 113.5° 94.6° 0.0" 0.0" 1006.0
6/21 10:00pm 237 6 G 11 97° 15% - - 41° 113.5° 94.6° 0.0" 0.0" 1005.0
6/21 9:50pm 236 5 G 13 98° 14% - - 40° 113.5° 94.6° 0.0" 0.0" 1005.0
6/21 9:40pm 229 6 G 15 99° 13% - - 39° 113.5° 94.6° 0.0" 0.0" 1005.0
6/21 9:30pm 225 6 G 15 99° 12% - - 39° 113.5° 94.6° 0.0" 0.0" 1005.0
6/21 9:20pm 223 7 G 16 99° 13% - - 39° 113.5° 94.6° 0.0" 0.0" 1005.0
6/21 9:10pm 230 7 G 15 100° 13% - - 41° 113.5° 94.6° 0.0" 0.0" 1005.0
6/21 9:00pm 226 6 G 14 100° 13% - - 41° 113.5° 94.6° 0.0" 0.0" 1005.0
6/21 8:50pm 253 7 G 14 101° 13% - - 40° 113.5° 94.6° 0.0" 0.0" 1005.0
6/21 8:40pm 270 9 G 16 101° 12% - - 40° 113.5° 94.6° 0.0" 0.0" 1005.0
6/21 8:30pm 235 7 G 16 102° 10% - - 35° 113.5° 94.6° 0.0" 0.0" 1005.0
6/21 8:20pm 233 6 G 11 102° 11% - - 38° 113.5° 94.6° 0.0" 0.0" 1005.0
6/21 8:10pm 267 7 G 16 102° 12% - - 40° 113.5° 94.6° 0.0" 0.0" 1005.0
6/21 8:00pm 269 8 G 16 103° 13% - - 41° 113.5° 94.6° 0.0" 0.0" 1005.0
6/21 7:50pm 268 8 G 13 103° 12% - - 42° 113.5° 94.6° 0.0" 0.0" 1005.0
6/21 7:40pm 260 5 G 11 104° 11% - - 40° 113.5° 94.6° 0.0" 0.0" 1005.0
6/21 7:30pm 239 4 G 8 104° 11% - - 39° 113.5° 94.6° 0.0" 0.0" 1005.0
6/21 7:20pm 242 5 G 12 104° 10% - - 37° 113.5° 94.6° 0.0" 0.0" 1005.0
6/21 7:10pm 233 6 G 15 105° 11% - - 39° 113.5° 94.6° 0.0" 0.0" 1005.0
6/21 7:00pm 259 7 G 15 105° 10% - - 39° 113.5° 94.6° 0.0" 0.0" 1005.0
6/21 6:50pm 249 6 G 15 106° 9% - - 36° 113.5° 94.6° 0.0" 0.0" 1005.0
6/21 6:40pm 255 8 G 17 107° 8% - - 34° 113.5° 94.6° 0.0" 0.0" 1005.0
6/21 6:30pm 260 8 G 15 108° 7% - - 31° 113.5° 94.6° 0.0" 0.0" 1005.0
6/21 6:20pm 254 8 G 17 108° 8% - - 33° 113.5° 94.6° 0.0" 0.0" 1005.0
6/21 6:10pm 260 9 G 18 108° 7% - - 33° 113.5° 94.6° 0.0" 0.0" 1004.0
6/21 6:00pm 261 8 G 15 109° 8% - - 33° 113.5° 94.6° 0.0" 0.0" 1004.0
6/21 5:50pm 268 8 G 17 109° 8% - - 34° 113.5° 94.6° 0.0" 0.0" 1004.0
6/21 5:40pm 269 10 G 18 109° 7% - - 33° 113.5° 94.6° 0.0" 0.0" 1004.0
6/21 5:30pm 267 11 G 20 110° 7% - - 32° 113.5° 94.6° 0.0" 0.0" 1004.0
6/21 5:20pm 263 9 G 20 110° 8% - - 35° 113.5° 94.6° 0.0" 0.0" 1004.0
6/21 5:10pm 269 11 G 20 110° 7% - - 32° 113.5° 94.6° 0.0" 0.0" 1004.0
6/21 5:00pm 265 11 G 20 111° 7% - - 32° 113.5° 94.6° 0.0" 0.0" 1004.0
6/21 4:50pm 262 10 G 17 111° 6% - - 31° 113.5° 94.6° 0.0" 0.0" 1004.0
6/21 4:40pm 265 8 G 19 112° 6% - - 30° 113.5° 94.6° 0.0" 0.0" 1004.0
6/21 4:30pm 260 9 G 17 112° 7% - - 32° 113.5° 94.6° 0.0" 0.0" 1004.0
6/21 4:20pm 255 8 G 15 112° 7% - - 34° 113.5° 94.6° 0.0" 0.0" 1004.0
6/21 4:10pm 259 8 G 18 112° 6% - - 31° 113.5° 94.6° 0.0" 0.0" 1005.0
6/21 4:00pm 250 9 G 17 113° 7% - - 33° 113.5° 94.6° 0.0" 0.0" 1005.0
6/21 3:50pm 251 7 G 17 112° 7% - - 34° 113.5° 94.6° 0.0" 0.0" 1005.0
6/21 3:40pm 234 4 G 12 112° 8% - - 35° 113.5° 94.6° 0.0" 0.0" 1005.0
6/21 3:30pm 29 3 G 8 112° 12% - - 47° 112.6° 94.6° 0.0" 0.0" 1005.0
6/21 3:20pm 29 3 G 10 111° 13% - - 49° 112.6° 94.6° 0.0" 0.0" 1005.0
6/21 3:10pm 26 6 G 10 110° 13% - - 49° 112.6° 94.6° 0.0" 0.0" 1005.0
6/21 3:00pm 94 4 G 10 111° 11% - - 44° 112.6° 94.6° 0.0" 0.0" 1006.0
6/21 2:50pm 87 5 G 12 111° 11% - - 44° 112.6° 94.6° 0.0" 0.0" 1006.0
6/21 2:40pm 57 8 G 16 111° 9% - - 39° 112.6° 94.6° 0.0" 0.0" 1006.0
6/21 2:30pm 56 9 G 14 111° 7% - - 34° 112.6° 94.6° 0.0" 0.0" 1006.0
6/21 2:20pm 64 8 G 14 112° 7% - - 34° 112.6° 94.6° 0.0" 0.0" 1006.0
6/21 2:10pm 68 7 G 14 111° 7% - - 34° 112.5° 94.6° 0.0" 0.0" 1006.0
6/21 2:00pm 56 10 G 14 109° 8% - - 34° 110.9° 94.6° 0.0" 0.0" 1006.0
6/21 1:50pm 58 8 G 14 110° 8% - - 35° 110.9° 94.6° 0.0" 0.0" 1006.0
6/21 1:40pm 72 8 G 13 109° 9% - - 37° 110.9° 94.6° 0.0" 0.0" 1006.0
6/21 1:30pm 78 7 G 14 110° 10% - - 41° 110.9° 94.6° 0.0" 0.0" 1006.0
6/21 1:20pm 68 7 G 14 110° 10% - - 42° 110.9° 94.6° 0.0" 0.0" 1007.0
6/21 1:10pm 65 8 G 13 109° 10% - - 40° 110° 94.6° 0.0" 0.0" 1007.0
6/21 1:00pm 72 7 G 14 108° 10% - - 41° 109.6° 94.6° 0.0" 0.0" 1007.0
6/21 12:50pm 85 5 G 10 108° 11% - - 42° 109.6° 94.6° 0.0" 0.0" 1007.0
6/21 12:40pm 77 7 G 14 107° 12% - - 44° 108° 94.6° 0.0" 0.0" 1007.0
6/21 12:30pm 57 9 G 15 106° 14% - - 46° 107.4° 94.6° 0.0" 0.0" 1007.0
6/21 12:20pm 66 7 G 15 106° 15% - - 49° 107.4° 94.6° 0.0" 0.0" 1007.0
6/21 12:10pm 78 7 G 13 105° 16% - - 50° 107° 94.6° 0.0" 0.0" 1007.0
6/21 12:00pm 85 5 G 11 105° 16% - - 50° 107° 94.6° 0.0" 0.0" 1008.0
6/21 11:50am 89 6 G 13 104° 17% - - 52° 107° 94.6° 0.0" 0.0" 1008.0
6/21 11:40am 91 5 G 12 105° 18% - - 52° 107° 94.6° 0.0" 0.0" 1008.0
6/21 11:30am 75 6 G 10 104° 19% - - 53° 107° 94.6° 0.0" 0.0" 1008.0
6/21 11:20am 69 7 G 15 104° 19% - - 53° 107° 94.6° 0.0" 0.0" 1008.0
6/21 11:10am 74 6 G 11 104° 19% - - 53° 107° 94.6° 0.0" 0.0" 1008.0
6/21 11:00am 81 6 G 12 104° 17% - - 51° 107° 94.6° 0.0" 0.0" 1008.0
6/21 10:50am 97 6 G 10 105° 14% - - 45° 107° 94.6° 0.0" 0.0" 1008.0
6/21 10:40am 78 5 G 9 106° 12% - - 43° 107° 94.6° 0.0" 0.0" 1008.0
6/21 10:30am 91 4 G 7 106° 10% - - 37° 107° 94.6° 0.0" 0.0" 1008.0
6/21 10:20am 74 4 G 8 106° 8% - - 34° 107° 94.6° 0.0" 0.0" 1008.0
6/21 10:10am 68 5 G 9 106° 8% - - 32° 106.8° 94.6° 0.0" 0.0" 1008.0
6/21 10:00am 59 6 G 10 105° 8% - - 30° 106.2° 94.6° 0.0" 0.0" 1008.0
6/21 9:50am 53 7 G 11 105° 7% - - 30° 106.2° 94.6° 0.0" 0.0" 1008.0
6/21 9:40am 51 7 G 11 105° 7% - - 29° 106.2° 94.6° 0.0" 0.0" 1008.0
6/21 9:30am 50 5 G 8 105° 7% - - 28° 106.2° 94.6° 0.0" 0.0" 1008.0
6/21 9:20am 48 6 G 8 104° 7% - - 28° 106.2° 94.6° 0.0" 0.0" 1008.0
6/21 9:10am 61 7 G 12 105° 7% - - 28° 106.2° 94.6° 0.0" 0.0" 1008.0
6/21 9:00am 312 4 G 7 105° 6% - - 26° 106.2° 94.6° 0.0" 0.0" 1008.0
6/21 8:50am 260 2 G 5 105° 6% - - 24° 105.7° 94.6° 0.0" 0.0" 1008.0
6/21 8:40am 274 3 G 5 104° 7% - - 26° 104.7° 94.6° 0.0" 0.0" 1008.0
6/21 8:30am 269 4 G 7 103° 7% - - 27° 103.7° 94.6° 0.0" 0.0" 1008.0
6/21 8:20am 262 4 G 7 102° 7% - - 27° 102.9° 94.6° 0.0" 0.0" 1008.0
6/21 8:10am 269 4 G 8 101° 8% - - 28° 101.7° 94.6° 0.0" 0.0" 1008.0
6/21 8:00am 270 6 G 11 100° 8% - - 28° 100.9° 94.6° 0.0" 0.0" 1008.0
6/21 7:50am 257 4 G 11 100° 8% - - 28° 100.4° 94.6° 0.0" 0.0" 1008.0
6/21 7:40am 257 5 G 10 99° 8% - - 28° 100.3° 94.6° 0.0" 0.0" 1008.0
6/21 7:30am 217 4 G 8 98° 9% - - 29° 100.3° 94.6° 0.0" 0.0" 1008.0
6/21 7:20am 209 6 G 8 97° 9% - - 29° 100.3° 94.6° 0.0" 0.0" 1008.0
6/21 7:10am 203 6 G 10 96° 9% - - 28° 100.3° 94.6° 0.0" 0.0" 1008.0
6/21 7:00am 201 7 G 9 96° 9% - - 28° 100.3° 94.6° 0.0" 0.0" 1007.0
6/21 6:50am 205 8 G 12 95° 10% - - 29° 100.3° 94.6° 0.0" 0.0" 1007.0
6/21 6:40am 217 5 G 12 95° 9% - - 28° 100.3° 94.7° 0.0" 0.0" 1007.0
6/21 6:30am 222 4 G 8 96° 9% - - 28° 100.3° 94.7° 0.0" 0.0" 1007.0
6/21 6:20am 211 4 G 9 96° 9% - - 28° 100.3° 94.7° 0.0" 0.0" 1007.0
6/21 6:10am 209 4 G 8 95° 9% - - 28° 100.3° 94.7° 0.0" 0.0" 1007.0
6/21 6:00am 217 3 G 7 96° 9% - - 28° 100.3° 94.7° 0.0" 0.0" 1007.0
6/21 5:50am 234 3 G 6 96° 9% - - 28° 100.3° 94.7° 0.0" 0.0" 1007.0
6/21 5:40am 243 4 G 7 96° 9% - - 29° 100.3° 94.7° 0.0" 0.0" 1007.0
6/21 5:30am 227 4 G 6 96° 10% - - 30° 100.3° 94.7° 0.0" 0.0" 1007.0
6/21 5:20am 225 5 G 10 98° 9% - - 30° 100.3° 95.7° 0.0" 0.0" 1007.0
6/21 5:10am 180 3 G 8 98° 9% - - 30° 100.3° 97.4° 0.0" 0.0" 1007.0
6/21 5:00am 172 4 G 9 98° 9% - - 31° 100.3° 97.4° 0.0" 0.0" 1007.0
6/21 4:50am 198 3 G 11 98° 9% - - 31° 100.3° 97.4° 0.0" 0.0" 1007.0
6/21 4:40am 185 5 G 12 99° 9% - - 31° 100.3° 98° 0.0" 0.0" 1006.0
6/21 4:30am 185 4 G 14 99° 9% - - 31° 100.3° 98° 0.0" 0.0" 1006.0
6/21 4:20am 182 6 G 12 99° 9% - - 31° 100.3° 98.1° 0.0" 0.0" 1006.0
6/21 4:10am 194 6 G 18 99° 9% - - 31° 100.3° 98.5° 0.0" 0.0" 1006.0
6/21 4:00am 211 7 G 16 99° 9% - - 32° 100.3° 98.5° 0.0" 0.0" 1006.0
6/21 3:50am 224 7 G 16 99° 9% - - 32° 100.3° 98.5° 0.0" 0.0" 1006.0
6/21 3:40am 222 8 G 19 99° 9% - - 32° 100.3° 98.5° 0.0" 0.0" 1006.0
6/21 3:30am 228 8 G 20 100° 9% - - 32° 100.3° 98.5° 0.0" 0.0" 1006.0
6/21 3:20am 212 7 G 15 99° 10% - - 32° 100.3° 98.5° 0.0" 0.0" 1006.0
6/21 3:10am 220 6 G 13 99° 10% - - 33° 100.3° 98.5° 0.0" 0.0" 1006.0
6/21 3:00am 216 7 G 12 99° 10% - - 33° 100.3° 98.5° 0.0" 0.0" 1006.0
6/21 2:50am 222 8 G 17 100° 10% - - 34° 100.3° 98.5° 0.0" 0.0" 1006.0
6/21 2:40am 222 7 G 14 100° 10% - - 34° 100.1° 98.5° 0.0" 0.0" 1006.0
6/21 2:30am 202 7 G 19 99° 11% - - 35° 100.1° 98.5° 0.0" 0.0" 1007.0
6/21 2:20am 210 7 G 15 99° 11% - - 35° 100.1° 98.5° 0.0" 0.0" 1007.0
6/21 2:10am 231 7 G 16 99° 11% - - 36° 100.1° 98.5° 0.0" 0.0" 1007.0
6/21 2:00am 228 7 G 19 99° 11% - - 37° 100.1° 98.5° 0.0" 0.0" 1007.0
6/21 1:50am 221 7 G 17 99° 12% - - 37° 100.1° 98.5° 0.0" 0.0" 1007.0
6/21 1:40am 221 6 G 14 99° 12% - - 38° 100.1° 98.5° 0.0" 0.0" 1007.0
6/21 1:30am 194 7 G 16 99° 13% - - 39° 100.1° 98.5° 0.0" 0.0" 1007.0
6/21 1:20am 195 6 G 11 99° 13% - - 40° 100.1° 98.5° 0.0" 0.0" 1007.0
6/21 1:10am 196 6 G 15 99° 14% - - 41° 100.1° 98.5° 0.0" 0.0" 1007.0
6/21 1:00am 187 5 G 19 99° 14% - - 42° 100.1° 98.6° 0.0" 0.0" 1007.0
6/21 12:50am 196 7 G 18 99° 15% - - 43° 100.1° 98.6° 0.0" 0.0" 1008.0
6/21 12:40am 209 5 G 14 99° 15% - - 43° 100.1° 98.8° 0.0" 0.0" 1008.0
6/21 12:30am 195 8 G 18 99° 15% - - 44° 100.1° 98.9° 0.0" 0.0" 1008.0
6/21 12:20am 209 5 G 16 99° 16% - - 45° 100.1° 98.9° 0.0" 0.0" 1008.0
6/21 12:10am 191 7 G 14 100° 16% - - 45° 100.1° 99.2° 0.0" 0.0" 1008.0
6/21 12:00am 214 5 G 12 99° 17% - - 46° 116.2° 93.3° 0.0" 0.0" 1008.0
6/20 11:50pm 205 6 G 14 99° 17% - - 47° 116.2° 93.3° 0.0" 0.0" 1008.0
6/20 11:40pm 204 7 G 20 99° 18% - - 48° 116.2° 93.3° 0.0" 0.0" 1008.0
6/20 11:30pm 197 8 G 17 99° 18% - - 48° 116.2° 93.3° 0.0" 0.0" 1008.0
6/20 11:20pm 193 7 G 16 99° 18% - - 48° 116.2° 93.3° 0.0" 0.0" 1008.0
6/20 11:10pm 186 7 G 15 100° 17% - - 48° 116.2° 93.3° 0.0" 0.0" 1008.0
6/20 11:00pm 197 7 G 20 100° 18% - - 48° 116.2° 93.3° 0.0" 0.0" 1008.0
6/20 10:50pm 204 8 G 21 100° 18% - - 48° 116.2° 93.3° 0.0" 0.0" 1008.0
6/20 10:40pm 217 6 G 14 100° 18% - - 49° 116.2° 93.3° 0.0" 0.0" 1008.0
6/20 10:30pm 222 6 G 16 100° 18% - - 49° 116.2° 93.3° 0.0" 0.0" 1008.0
6/20 10:20pm 213 6 G 16 100° 18% - - 49° 116.2° 93.3° 0.0" 0.0" 1008.0
6/20 10:10pm 221 6 G 16 100° 18% - - 50° 116.2° 93.3° 0.0" 0.0" 1008.0
6/20 10:00pm 217 6 G 12 100° 19% - - 50° 116.2° 93.3° 0.0" 0.0" 1008.0
6/20 9:50pm 205 8 G 15 100° 19% - - 50° 116.2° 93.3° 0.0" 0.0" 1008.0
6/20 9:40pm 218 6 G 11 100° 19% - - 51° 116.2° 93.3° 0.0" 0.0" 1008.0
6/20 9:30pm 233 6 G 15 100° 19% - - 51° 116.2° 93.3° 0.0" 0.0" 1008.0
6/20 9:20pm 229 7 G 14 101° 20% - - 52° 116.2° 93.3° 0.0" 0.0" 1008.0
6/20 9:10pm 215 7 G 15 101° 20% - - 52° 116.2° 93.3° 0.0" 0.0" 1008.0
6/20 9:00pm 215 7 G 15 101° 20% - - 52° 116.2° 93.3° 0.0" 0.0" 1008.0
6/20 8:50pm 226 5 G 11 101° 20% - - 52° 116.2° 93.3° 0.0" 0.0" 1008.0
6/20 8:40pm 214 6 G 13 102° 19% - - 52° 116.2° 93.3° 0.0" 0.0" 1008.0
6/20 8:30pm 225 8 G 16 102° 18% - - 51° 116.2° 93.3° 0.0" 0.0" 1007.0
6/20 8:20pm 227 8 G 16 103° 18% - - 51° 116.2° 93.3° 0.0" 0.0" 1007.0
6/20 8:10pm 226 8 G 17 103° 17% - - 49° 116.2° 93.3° 0.0" 0.0" 1007.0
6/20 8:00pm 229 8 G 17 104° 16% - - 49° 116.2° 93.3° 0.0" 0.0" 1007.0
6/20 7:50pm 228 8 G 17 104° 16% - - 49° 116.2° 93.3° 0.0" 0.0" 1007.0
6/20 7:40pm 220 9 G 17 104° 16% - - 49° 116.2° 93.3° 0.0" 0.0" 1007.0
6/20 7:30pm 220 9 G 19 105° 15% - - 49° 116.2° 93.3° 0.0" 0.0" 1007.0
6/20 7:20pm 222 8 G 15 106° 15% - - 49° 116.2° 93.3° 0.0" 0.0" 1007.0
6/20 7:10pm 228 8 G 17 106° 15% - - 49° 116.2° 93.3° 0.0" 0.0" 1007.0
6/20 7:00pm 228 8 G 18 107° 15% - - 50° 116.2° 93.3° 0.0" 0.0" 1007.0
6/20 6:50pm 228 8 G 18 107° 15% - - 50° 116.2° 93.3° 0.0" 0.0" 1007.0
6/20 6:40pm 222 8 G 16 108° 15% - - 51° 116.2° 93.3° 0.0" 0.0" 1007.0
6/20 6:30pm 225 9 G 17 108° 15% - - 51° 116.2° 93.3° 0.0" 0.0" 1007.0
6/20 6:20pm 224 9 G 19 108° 15% - - 51° 116.2° 93.3° 0.0" 0.0" 1007.0
6/20 6:10pm 233 8 G 16 109° 15% - - 51° 116.2° 93.3° 0.0" 0.0" 1007.0
6/20 6:00pm 247 8 G 18 110° 14% - - 50° 116.2° 93.3° 0.0" 0.0" 1007.0